This is the latest recevied weather packets stored in our database for station/object DC8RAI-12. If no packets are shown the sender has not sent any weather packets the latest 1 day(s).
| Time | Temp. | Humidity | Pressure | Rain* | Wind** | Luminosity | Snow |
|---|---|---|---|---|---|---|---|
| 1778092207 | 12.22° C | 66% | 1009.2 hPa | - | - | - | - |
| 1778084106 | 16.11° C | 60% | 1006.8 hPa | - | - | - | - |
| 1778083206 | 15° C | 62% | 1006.6 hPa | - | - | - | - |
| 1778076905 | 23.33° C | 41% | 1003.8 hPa | - | - | - | - |
| 1778076005 | 22.78° C | 39% | 1003.8 hPa | - | - | - | - |
| 1778075105 | 23.33° C | 41% | 1003.7 hPa | - | - | - | - |
| 1778074205 | 23.89° C | 37% | 1004 hPa | - | - | - | - |
| 1778069711 | 24.44° C | 35% | 1004.8 hPa | - | - | - | - |
| 1778067010 | 23.89° C | 41% | 1005.6 hPa | - | - | - | - |
| 1778066110 | 21.67° C | 42% | 1005.8 hPa | - | - | - | - |
| 1778065210 | 22.78° C | 45% | 1006 hPa | - | - | - | - |
| 1778058009 | 18.89° C | 51% | 1006.8 hPa | - | - | - | - |
| 1778051707 | 15.56° C | 56% | 1007.8 hPa | - | - | - | - |
| 1778050807 | 15.56° C | 58% | 1008 hPa | - | - | - | - |
| 1778046308 | 15° C | 60% | 1008.4 hPa | - | - | - | - |
| 1778045408 | 13.33° C | 67% | 1008.6 hPa | - | - | - | - |
| 1778044508 | 11.67° C | 74% | 1008.7 hPa | - | - | - | - |
| 1778041808 | 8.89° C | 79% | 1008.6 hPa | - | - | - | - |
| 1778039107 | 9.44° C | 77% | 1008.7 hPa | - | - | - | - |
| 1778034606 | 10.56° C | 74% | 1009.6 hPa | - | - | - | - |
| 1778033706 | 10° C | 76% | 1009.6 hPa | - | - | - | - |
| 1778031906 | 10.56° C | 76% | 1009.4 hPa | - | - | - | - |
| 1778031005 | 10.56° C | 76% | 1009.6 hPa | - | - | - | - |
| 1778028309 | 11.67° C | 75% | 1009.5 hPa | - | - | - | - |
| 1778027409 | 12.22° C | 72% | 1009.6 hPa | - | - | - | - |
* Rain since midnight (hover to see other rain measurements)
** Current wind speed in m/s (hover to see current wind gust speed)